sensor_id;sensor_type;location;lat;lon;timestamp;noise_LAeq;noise_LA_min;noise_LA_max;noise_LA01;noise_LA95
57439;Laerm;43282;47.188;8.896;2023-02-28T00:02:16;42.24;36.20;52.84;;
57439;Laerm;43282;47.188;8.896;2023-02-28T00:04:42;46.79;35.66;61.93;;
57439;Laerm;43282;47.188;8.896;2023-02-28T00:07:08;46.19;32.93;62.97;;
57439;Laerm;43282;47.188;8.896;2023-02-28T00:09:33;45.93;36.91;61.49;;
57439;Laerm;43282;47.188;8.896;2023-02-28T00:11:58;45.40;36.91;61.52;;
57439;Laerm;43282;47.188;8.896;2023-02-28T00:14:24;41.40;36.69;49.90;;
57439;Laerm;43282;47.188;8.896;2023-02-28T00:16:49;45.12;38.37;57.67;;
57439;Laerm;43282;47.188;8.896;2023-02-28T00:19:14;40.80;36.20;46.15;;
57439;Laerm;43282;47.188;8.896;2023-02-28T00:21:39;43.53;39.46;57.52;;
57439;Laerm;43282;47.188;8.896;2023-02-28T00:24:06;42.04;38.81;45.72;;
57439;Laerm;43282;47.188;8.896;2023-02-28T00:26:31;42.62;39.46;49.82;;
57439;Laerm;43282;47.188;8.896;2023-02-28T00:28:56;43.78;38.21;55.31;;
57439;Laerm;43282;47.188;8.896;2023-02-28T00:31:21;41.11;33.90;52.26;;
57439;Laerm;43282;47.188;8.896;2023-02-28T00:33:47;55.19;35.66;73.34;;
57439;Laerm;43282;47.188;8.896;2023-02-28T00:36:12;40.69;34.31;53.77;;
57439;Laerm;43282;47.188;8.896;2023-02-28T00:38:37;40.58;33.44;55.96;;
57439;Laerm;43282;47.188;8.896;2023-02-28T00:41:03;40.32;33.90;50.65;;
57439;Laerm;43282;47.188;8.896;2023-02-28T00:43:34;42.06;38.18;45.89;;
57439;Laerm;43282;47.188;8.896;2023-02-28T00:46:00;40.42;34.69;56.13;;
57439;Laerm;43282;47.188;8.896;2023-02-28T00:48:25;46.64;34.31;64.62;;
57439;Laerm;43282;47.188;8.896;2023-02-28T00:50:51;47.43;35.04;66.38;;
57439;Laerm;43282;47.188;8.896;2023-02-28T00:53:16;41.39;37.88;43.81;;
57439;Laerm;43282;47.188;8.896;2023-02-28T00:55:41;57.27;38.81;77.29;;
57439;Laerm;43282;47.188;8.896;2023-02-28T00:58:07;43.07;39.21;46.89;;
57439;Laerm;43282;47.188;8.896;2023-02-28T01:00:32;42.11;39.21;44.03;;
57439;Laerm;43282;47.188;8.896;2023-02-28T01:02:57;41.00;34.69;46.59;;
57439;Laerm;43282;47.188;8.896;2023-02-28T01:05:22;43.12;35.04;53.10;;
57439;Laerm;43282;47.188;8.896;2023-02-28T01:07:48;40.28;35.01;43.72;;
57439;Laerm;43282;47.188;8.896;2023-02-28T01:10:14;40.41;34.69;43.39;;
57439;Laerm;43282;47.188;8.896;2023-02-28T01:12:39;39.59;34.69;43.54;;
57439;Laerm;43282;47.188;8.896;2023-02-28T01:15:04;44.65;35.94;61.67;;
57439;Laerm;43282;47.188;8.896;2023-02-28T01:17:30;41.54;36.45;55.91;;
57439;Laerm;43282;47.188;8.896;2023-02-28T01:19:55;40.21;36.20;42.41;;
57439;Laerm;43282;47.188;8.896;2023-02-28T01:22:21;40.97;37.32;45.23;;
57439;Laerm;43282;47.188;8.896;2023-02-28T01:24:46;56.59;38.21;75.20;;
57439;Laerm;43282;47.188;8.896;2023-02-28T01:27:11;48.97;39.46;63.67;;
57439;Laerm;43282;47.188;8.896;2023-02-28T01:29:36;46.07;39.21;62.08;;
57439;Laerm;43282;47.188;8.896;2023-02-28T01:32:02;42.56;39.70;51.80;;
57439;Laerm;43282;47.188;8.896;2023-02-28T01:34:27;41.83;35.04;46.71;;
57439;Laerm;43282;47.188;8.896;2023-02-28T01:36:52;39.77;35.36;44.43;;
57439;Laerm;43282;47.188;8.896;2023-02-28T01:39:18;42.69;37.32;47.36;;
57439;Laerm;43282;47.188;8.896;2023-02-28T01:41:43;46.12;36.69;64.79;;
57439;Laerm;43282;47.188;8.896;2023-02-28T01:46:52;46.12;35.94;63.69;;
57439;Laerm;43282;47.188;8.896;2023-02-28T01:49:17;40.56;35.36;43.94;;
57439;Laerm;43282;47.188;8.896;2023-02-28T01:54:20;41.15;36.45;46.52;;
57439;Laerm;43282;47.188;8.896;2023-02-28T01:56:48;40.35;35.94;43.34;;
57439;Laerm;43282;47.188;8.896;2023-02-28T01:59:18;41.66;37.88;44.83;;
57439;Laerm;43282;47.188;8.896;2023-02-28T02:01:46;41.94;39.92;44.27;;
57439;Laerm;43282;47.188;8.896;2023-02-28T02:04:11;42.57;40.23;47.91;;
57439;Laerm;43282;47.188;8.896;2023-02-28T02:09:01;41.10;38.67;43.04;;
57439;Laerm;43282;47.188;8.896;2023-02-28T02:11:27;41.14;39.08;44.62;;
57439;Laerm;43282;47.188;8.896;2023-02-28T02:16:45;45.63;39.34;62.09;;
57439;Laerm;43282;47.188;8.896;2023-02-28T02:19:37;40.93;37.32;43.72;;
57439;Laerm;43282;47.188;8.896;2023-02-28T02:35:23;55.10;39.92;74.64;;
57439;Laerm;43282;47.188;8.896;2023-02-28T02:37:51;42.64;39.46;47.88;;
57439;Laerm;43282;47.188;8.896;2023-02-28T02:40:19;46.16;35.94;62.94;;
57439;Laerm;43282;47.188;8.896;2023-02-28T02:42:50;46.73;38.81;57.74;;
57439;Laerm;43282;47.188;8.896;2023-02-28T02:47:48;42.59;35.66;53.62;;
57439;Laerm;43282;47.188;8.896;2023-02-28T02:50:19;40.10;35.94;45.23;;
57439;Laerm;43282;47.188;8.896;2023-02-28T02:52:48;40.86;36.45;47.26;;
57439;Laerm;43282;47.188;8.896;2023-02-28T02:55:16;50.50;36.69;65.89;;
57439;Laerm;43282;47.188;8.896;2023-02-28T02:57:46;45.84;35.66;61.66;;
57439;Laerm;43282;47.188;8.896;2023-02-28T03:00:12;41.20;37.88;46.35;;
57439;Laerm;43282;47.188;8.896;2023-02-28T03:02:39;42.40;39.08;48.31;;
57439;Laerm;43282;47.188;8.896;2023-02-28T03:05:12;42.08;38.81;44.51;;
57439;Laerm;43282;47.188;8.896;2023-02-28T03:07:40;42.32;39.23;44.51;;
57439;Laerm;43282;47.188;8.896;2023-02-28T03:10:25;46.35;39.46;61.69;;
57439;Laerm;43282;47.188;8.896;2023-02-28T03:12:52;40.79;35.36;47.18;;
57439;Laerm;43282;47.188;8.896;2023-02-28T03:15:24;47.25;35.66;65.51;;
57439;Laerm;43282;47.188;8.896;2023-02-28T03:27:55;46.74;35.66;64.07;;
57439;Laerm;43282;47.188;8.896;2023-02-28T03:30:27;41.00;35.36;44.76;;
57439;Laerm;43282;47.188;8.896;2023-02-28T03:35:21;48.00;39.58;66.84;;
57439;Laerm;43282;47.188;8.896;2023-02-28T03:37:52;42.42;39.81;45.45;;
57439;Laerm;43282;47.188;8.896;2023-02-28T03:40:21;44.51;40.43;56.74;;
57439;Laerm;43282;47.188;8.896;2023-02-28T03:42:48;47.01;40.43;61.67;;
57439;Laerm;43282;47.188;8.896;2023-02-28T03:45:36;47.06;37.52;64.66;;
57439;Laerm;43282;47.188;8.896;2023-02-28T03:50:41;48.14;39.46;61.57;;
57439;Laerm;43282;47.188;8.896;2023-02-28T03:55:34;45.63;38.81;61.73;;
57439;Laerm;43282;47.188;8.896;2023-02-28T03:58:07;53.48;38.95;70.68;;
57439;Laerm;43282;47.188;8.896;2023-02-28T04:00:40;49.59;40.89;69.64;;
57439;Laerm;43282;47.188;8.896;2023-02-28T04:03:07;51.48;41.06;66.03;;
57439;Laerm;43282;47.188;8.896;2023-02-28T04:05:32;43.72;40.62;50.15;;
57439;Laerm;43282;47.188;8.896;2023-02-28T04:08:05;43.83;41.53;46.78;;
57439;Laerm;43282;47.188;8.896;2023-02-28T04:10:31;47.69;41.30;65.25;;
57439;Laerm;43282;47.188;8.896;2023-02-28T04:12:56;49.11;42.16;63.13;;
57439;Laerm;43282;47.188;8.896;2023-02-28T04:15:21;46.19;41.61;60.46;;
57439;Laerm;43282;47.188;8.896;2023-02-28T04:17:48;52.53;42.03;68.72;;
57439;Laerm;43282;47.188;8.896;2023-02-28T04:20:13;48.31;41.82;63.71;;
57439;Laerm;43282;47.188;8.896;2023-02-28T04:22:38;50.70;42.88;64.96;;
57439;Laerm;43282;47.188;8.896;2023-02-28T04:25:04;50.14;41.46;64.34;;
57439;Laerm;43282;47.188;8.896;2023-02-28T04:27:30;49.40;41.53;64.99;;
57439;Laerm;43282;47.188;8.896;2023-02-28T04:29:55;50.99;42.47;65.26;;
57439;Laerm;43282;47.188;8.896;2023-02-28T04:32:21;50.92;42.88;64.00;;
57439;Laerm;43282;47.188;8.896;2023-02-28T04:34:46;53.30;43.68;65.45;;
57439;Laerm;43282;47.188;8.896;2023-02-28T04:37:11;53.19;43.24;66.65;;
57439;Laerm;43282;47.188;8.896;2023-02-28T04:39:37;54.27;44.39;66.76;;
57439;Laerm;43282;47.188;8.896;2023-02-28T04:42:03;53.81;42.98;65.79;;
57439;Laerm;43282;47.188;8.896;2023-02-28T04:44:28;56.16;44.90;65.67;;
57439;Laerm;43282;47.188;8.896;2023-02-28T04:46:53;52.85;43.63;64.29;;
57439;Laerm;43282;47.188;8.896;2023-02-28T04:49:18;56.28;46.13;66.11;;
57439;Laerm;43282;47.188;8.896;2023-02-28T04:51:44;55.92;46.25;66.46;;
57439;Laerm;43282;47.188;8.896;2023-02-28T04:54:09;54.63;46.02;66.80;;
57439;Laerm;43282;47.188;8.896;2023-02-28T04:56:35;56.91;44.23;68.94;;
57439;Laerm;43282;47.188;8.896;2023-02-28T04:59:00;55.19;44.47;65.79;;
57439;Laerm;43282;47.188;8.896;2023-02-28T05:01:26;52.73;43.77;62.41;;
57439;Laerm;43282;47.188;8.896;2023-02-28T05:03:53;55.33;43.99;68.98;;
57439;Laerm;43282;47.188;8.896;2023-02-28T05:06:19;54.97;42.88;67.16;;
57439;Laerm;43282;47.188;8.896;2023-02-28T05:08:45;55.83;42.82;68.99;;
57439;Laerm;43282;47.188;8.896;2023-02-28T05:11:22;52.52;42.74;66.98;;
57439;Laerm;43282;47.188;8.896;2023-02-28T05:13:49;57.28;42.74;70.27;;
57439;Laerm;43282;47.188;8.896;2023-02-28T05:16:14;61.55;43.39;83.26;;
57439;Laerm;43282;47.188;8.896;2023-02-28T05:18:40;57.18;42.22;72.00;;
57439;Laerm;43282;47.188;8.896;2023-02-28T05:24:10;53.68;42.82;66.95;;
57439;Laerm;43282;47.188;8.896;2023-02-28T05:26:42;55.08;42.76;68.73;;
57439;Laerm;43282;47.188;8.896;2023-02-28T05:29:08;54.87;43.81;66.61;;
57439;Laerm;43282;47.188;8.896;2023-02-28T05:31:34;57.40;43.72;69.98;;
57439;Laerm;43282;47.188;8.896;2023-02-28T05:33:59;56.94;44.03;70.65;;
57439;Laerm;43282;47.188;8.896;2023-02-28T05:36:25;56.89;45.33;65.67;;
57439;Laerm;43282;47.188;8.896;2023-02-28T05:38:50;60.42;44.31;78.42;;
57439;Laerm;43282;47.188;8.896;2023-02-28T05:41:16;57.71;44.54;67.61;;
57439;Laerm;43282;47.188;8.896;2023-02-28T05:43:42;59.10;45.04;70.46;;
57439;Laerm;43282;47.188;8.896;2023-02-28T05:46:09;57.81;45.51;67.51;;
57439;Laerm;43282;47.188;8.896;2023-02-28T05:48:34;60.65;45.77;75.67;;
57439;Laerm;43282;47.188;8.896;2023-02-28T05:51:00;65.36;45.86;83.89;;
57439;Laerm;43282;47.188;8.896;2023-02-28T05:53:26;56.17;43.90;65.81;;
57439;Laerm;43282;47.188;8.896;2023-02-28T05:55:51;57.05;44.54;67.61;;
57439;Laerm;43282;47.188;8.896;2023-02-28T05:58:16;58.23;44.62;69.93;;
57439;Laerm;43282;47.188;8.896;2023-02-28T06:00:42;59.45;44.97;70.97;;
57439;Laerm;43282;47.188;8.896;2023-02-28T06:03:07;56.27;43.24;65.67;;
57439;Laerm;43282;47.188;8.896;2023-02-28T06:05:32;58.75;44.69;72.46;;
57439;Laerm;43282;47.188;8.896;2023-02-28T06:07:58;58.85;44.43;71.45;;
57439;Laerm;43282;47.188;8.896;2023-02-28T06:10:23;57.32;43.34;70.42;;
57439;Laerm;43282;47.188;8.896;2023-02-28T06:12:48;55.04;42.41;65.38;;
57439;Laerm;43282;47.188;8.896;2023-02-28T06:15:15;57.64;44.42;69.47;;
57439;Laerm;43282;47.188;8.896;2023-02-28T06:17:40;59.22;45.07;72.47;;
57439;Laerm;43282;47.188;8.896;2023-02-28T06:20:06;57.78;43.42;71.70;;
57439;Laerm;43282;47.188;8.896;2023-02-28T06:22:32;58.85;42.41;75.97;;
57439;Laerm;43282;47.188;8.896;2023-02-28T06:24:57;56.53;43.72;70.21;;
57439;Laerm;43282;47.188;8.896;2023-02-28T06:27:22;59.15;43.77;73.37;;
57439;Laerm;43282;47.188;8.896;2023-02-28T06:29:48;59.15;45.20;72.05;;
57439;Laerm;43282;47.188;8.896;2023-02-28T06:32:13;54.78;43.34;66.86;;
57439;Laerm;43282;47.188;8.896;2023-02-28T06:34:38;57.87;43.54;69.58;;
57439;Laerm;43282;47.188;8.896;2023-02-28T06:37:04;59.25;45.07;71.03;;
57439;Laerm;43282;47.188;8.896;2023-02-28T06:39:29;58.32;43.68;72.57;;
57439;Laerm;43282;47.188;8.896;2023-02-28T06:41:55;58.20;44.07;70.53;;
57439;Laerm;43282;47.188;8.896;2023-02-28T06:44:20;59.52;44.11;74.73;;
57439;Laerm;43282;47.188;8.896;2023-02-28T06:46:46;59.09;44.39;72.28;;
57439;Laerm;43282;47.188;8.896;2023-02-28T06:49:12;56.93;42.29;71.27;;
57439;Laerm;43282;47.188;8.896;2023-02-28T06:51:38;57.16;43.63;70.43;;
57439;Laerm;43282;47.188;8.896;2023-02-28T06:54:04;54.42;44.31;66.29;;
57439;Laerm;43282;47.188;8.896;2023-02-28T06:56:29;56.87;43.49;68.07;;
57439;Laerm;43282;47.188;8.896;2023-02-28T06:58:54;57.35;44.35;72.95;;
57439;Laerm;43282;47.188;8.896;2023-02-28T07:01:21;58.51;44.01;74.32;;
57439;Laerm;43282;47.188;8.896;2023-02-28T07:03:48;58.45;44.27;70.22;;
57439;Laerm;43282;47.188;8.896;2023-02-28T07:06:17;56.00;44.03;70.12;;
57439;Laerm;43282;47.188;8.896;2023-02-28T07:08:43;57.42;44.76;68.80;;
57439;Laerm;43282;47.188;8.896;2023-02-28T07:11:08;53.82;43.81;68.49;;
57439;Laerm;43282;47.188;8.896;2023-02-28T07:13:33;57.84;43.58;76.16;;
57439;Laerm;43282;47.188;8.896;2023-02-28T07:16:05;60.52;44.58;73.62;;
57439;Laerm;43282;47.188;8.896;2023-02-28T07:18:31;58.39;44.47;71.61;;
57439;Laerm;43282;47.188;8.896;2023-02-28T07:20:57;56.30;44.35;68.74;;
57439;Laerm;43282;47.188;8.896;2023-02-28T07:23:22;55.60;44.39;65.33;;
57439;Laerm;43282;47.188;8.896;2023-02-28T07:25:47;57.35;44.90;68.85;;
57439;Laerm;43282;47.188;8.896;2023-02-28T07:28:14;56.80;43.94;66.54;;
57439;Laerm;43282;47.188;8.896;2023-02-28T07:30:40;56.73;43.54;66.82;;
57439;Laerm;43282;47.188;8.896;2023-02-28T07:33:05;56.77;44.51;69.21;;
57439;Laerm;43282;47.188;8.896;2023-02-28T07:35:30;58.31;44.69;73.26;;
57439;Laerm;43282;47.188;8.896;2023-02-28T07:37:59;58.78;44.97;73.62;;
57439;Laerm;43282;47.188;8.896;2023-02-28T07:40:24;57.14;44.87;69.58;;
57439;Laerm;43282;47.188;8.896;2023-02-28T07:42:50;61.71;47.43;78.18;;
57439;Laerm;43282;47.188;8.896;2023-02-28T07:45:15;60.46;44.69;76.05;;
57439;Laerm;43282;47.188;8.896;2023-02-28T07:47:41;58.79;46.25;73.29;;
57439;Laerm;43282;47.188;8.896;2023-02-28T07:50:07;59.76;47.67;71.20;;
57439;Laerm;43282;47.188;8.896;2023-02-28T07:52:33;63.32;48.21;78.45;;
57439;Laerm;43282;47.188;8.896;2023-02-28T07:54:58;61.88;49.14;74.70;;
57439;Laerm;43282;47.188;8.896;2023-02-28T07:57:23;56.63;46.20;67.63;;
57439;Laerm;43282;47.188;8.896;2023-02-28T07:59:48;59.10;49.47;70.82;;
57439;Laerm;43282;47.188;8.896;2023-02-28T08:02:14;61.03;48.57;77.17;;
57439;Laerm;43282;47.188;8.896;2023-02-28T08:04:40;57.16;46.18;68.67;;
57439;Laerm;43282;47.188;8.896;2023-02-28T08:07:05;55.36;43.76;65.47;;
57439;Laerm;43282;47.188;8.896;2023-02-28T08:09:30;56.60;45.20;66.56;;
57439;Laerm;43282;47.188;8.896;2023-02-28T08:11:55;57.53;46.48;68.31;;
57439;Laerm;43282;47.188;8.896;2023-02-28T08:14:22;56.55;45.39;68.90;;
57439;Laerm;43282;47.188;8.896;2023-02-28T08:16:47;54.28;44.69;64.73;;
57439;Laerm;43282;47.188;8.896;2023-02-28T08:19:12;57.27;46.15;66.39;;
57439;Laerm;43282;47.188;8.896;2023-02-28T08:21:38;59.01;48.61;72.82;;
57439;Laerm;43282;47.188;8.896;2023-02-28T08:24:03;56.82;45.20;67.91;;
57439;Laerm;43282;47.188;8.896;2023-02-28T08:26:28;59.38;46.76;74.40;;
57439;Laerm;43282;47.188;8.896;2023-02-28T08:28:54;59.97;47.52;76.27;;
57439;Laerm;43282;47.188;8.896;2023-02-28T08:31:19;59.24;48.25;68.46;;
57439;Laerm;43282;47.188;8.896;2023-02-28T08:33:45;57.46;47.57;67.42;;
57439;Laerm;43282;47.188;8.896;2023-02-28T08:36:10;59.81;48.95;68.60;;
57439;Laerm;43282;47.188;8.896;2023-02-28T08:38:35;64.27;48.58;78.99;;
57439;Laerm;43282;47.188;8.896;2023-02-28T08:41:02;60.83;50.28;72.61;;
57439;Laerm;43282;47.188;8.896;2023-02-28T08:43:28;58.54;49.19;69.89;;
57439;Laerm;43282;47.188;8.896;2023-02-28T08:45:54;60.70;47.90;75.00;;
57439;Laerm;43282;47.188;8.896;2023-02-28T08:48:19;60.54;49.11;73.83;;
57439;Laerm;43282;47.188;8.896;2023-02-28T08:51:04;60.35;47.22;75.54;;
57439;Laerm;43282;47.188;8.896;2023-02-28T08:53:30;58.32;47.16;70.22;;
57439;Laerm;43282;47.188;8.896;2023-02-28T08:55:59;63.76;50.82;79.34;;
57439;Laerm;43282;47.188;8.896;2023-02-28T08:58:25;59.76;48.08;72.35;;
57439;Laerm;43282;47.188;8.896;2023-02-28T09:00:51;58.26;47.48;68.75;;
57439;Laerm;43282;47.188;8.896;2023-02-28T09:03:16;59.38;50.95;72.58;;
57439;Laerm;43282;47.188;8.896;2023-02-28T09:05:51;61.47;47.59;76.42;;
57439;Laerm;43282;47.188;8.896;2023-02-28T09:08:17;60.70;52.06;73.17;;
57439;Laerm;43282;47.188;8.896;2023-02-28T09:10:42;62.17;49.53;80.41;;
57439;Laerm;43282;47.188;8.896;2023-02-28T09:13:08;58.35;49.17;66.48;;
57439;Laerm;43282;47.188;8.896;2023-02-28T09:15:33;59.05;48.69;69.20;;
57439;Laerm;43282;47.188;8.896;2023-02-28T09:17:58;57.95;47.67;67.32;;
57439;Laerm;43282;47.188;8.896;2023-02-28T09:20:24;59.24;48.80;72.08;;
57439;Laerm;43282;47.188;8.896;2023-02-28T09:22:49;57.05;47.14;65.57;;
57439;Laerm;43282;47.188;8.896;2023-02-28T09:25:14;61.77;50.23;77.01;;
57439;Laerm;43282;47.188;8.896;2023-02-28T09:27:39;61.39;49.75;74.68;;
57439;Laerm;43282;47.188;8.896;2023-02-28T09:30:05;61.24;50.39;76.28;;
57439;Laerm;43282;47.188;8.896;2023-02-28T09:32:30;57.44;47.06;70.17;;
57439;Laerm;43282;47.188;8.896;2023-02-28T09:34:56;58.57;49.53;67.27;;
57439;Laerm;43282;47.188;8.896;2023-02-28T09:37:21;59.62;48.21;71.94;;
57439;Laerm;43282;47.188;8.896;2023-02-28T09:39:46;57.95;48.26;65.67;;
57439;Laerm;43282;47.188;8.896;2023-02-28T09:42:17;60.10;49.12;76.98;;
57439;Laerm;43282;47.188;8.896;2023-02-28T09:44:44;59.86;47.91;72.59;;
57439;Laerm;43282;47.188;8.896;2023-02-28T09:49:45;58.65;45.45;71.58;;
57439;Laerm;43282;47.188;8.896;2023-02-28T09:52:13;58.08;48.16;67.76;;
57439;Laerm;43282;47.188;8.896;2023-02-28T09:54:41;58.88;45.94;71.14;;
57439;Laerm;43282;47.188;8.896;2023-02-28T09:57:48;60.29;48.98;72.91;;
57439;Laerm;43282;47.188;8.896;2023-02-28T10:05:37;60.37;47.68;76.33;;
57439;Laerm;43282;47.188;8.896;2023-02-28T10:12:59;59.45;45.23;72.44;;
57439;Laerm;43282;47.188;8.896;2023-02-28T10:15:25;59.08;45.23;70.09;;
57439;Laerm;43282;47.188;8.896;2023-02-28T10:17:54;61.61;44.73;79.32;;
57439;Laerm;43282;47.188;8.896;2023-02-28T10:20:21;61.07;45.86;74.68;;
57439;Laerm;43282;47.188;8.896;2023-02-28T10:22:53;57.03;44.43;66.64;;
57439;Laerm;43282;47.188;8.896;2023-02-28T10:25:28;58.40;44.51;71.88;;
57439;Laerm;43282;47.188;8.896;2023-02-28T10:27:54;61.53;42.71;79.65;;
57439;Laerm;43282;47.188;8.896;2023-02-28T10:30:23;62.26;44.51;80.10;;
57439;Laerm;43282;47.188;8.896;2023-02-28T10:32:50;53.52;42.42;63.89;;
57439;Laerm;43282;47.188;8.896;2023-02-28T10:35:22;57.77;42.47;70.30;;
57439;Laerm;43282;47.188;8.896;2023-02-28T10:37:51;57.73;43.14;70.21;;
57439;Laerm;43282;47.188;8.896;2023-02-28T10:43:04;60.14;42.65;75.95;;
57439;Laerm;43282;47.188;8.896;2023-02-28T10:45:30;56.46;43.24;71.81;;
57439;Laerm;43282;47.188;8.896;2023-02-28T10:50:29;62.36;43.63;79.23;;
57439;Laerm;43282;47.188;8.896;2023-02-28T10:52:56;58.43;43.63;71.49;;
57439;Laerm;43282;47.188;8.896;2023-02-28T10:55:30;59.54;42.35;74.82;;
57439;Laerm;43282;47.188;8.896;2023-02-28T10:57:56;57.75;43.90;66.36;;
57439;Laerm;43282;47.188;8.896;2023-02-28T11:00:22;60.61;44.90;73.99;;
57439;Laerm;43282;47.188;8.896;2023-02-28T11:02:50;58.57;44.35;70.08;;
57439;Laerm;43282;47.188;8.896;2023-02-28T11:05:23;58.74;43.09;68.15;;
57439;Laerm;43282;47.188;8.896;2023-02-28T11:07:52;58.69;43.39;71.18;;
57439;Laerm;43282;47.188;8.896;2023-02-28T11:10:19;57.74;45.04;69.89;;
57439;Laerm;43282;47.188;8.896;2023-02-28T11:12:45;58.06;45.30;71.24;;
57439;Laerm;43282;47.188;8.896;2023-02-28T11:20:21;54.99;43.63;67.53;;
57439;Laerm;43282;47.188;8.896;2023-02-28T11:22:48;54.78;42.98;64.73;;
57439;Laerm;43282;47.188;8.896;2023-02-28T11:25:28;55.69;43.29;75.71;;
57439;Laerm;43282;47.188;8.896;2023-02-28T11:27:59;56.59;44.15;76.25;;
57439;Laerm;43282;47.188;8.896;2023-02-28T11:32:55;56.37;43.86;69.90;;
57439;Laerm;43282;47.188;8.896;2023-02-28T11:37:48;55.73;43.77;67.86;;
57439;Laerm;43282;47.188;8.896;2023-02-28T11:40:15;61.65;44.07;78.17;;
57439;Laerm;43282;47.188;8.896;2023-02-28T11:42:55;57.35;44.07;74.74;;
57439;Laerm;43282;47.188;8.896;2023-02-28T11:56:25;57.86;43.90;70.32;;
57439;Laerm;43282;47.188;8.896;2023-02-28T12:04:10;62.74;44.65;79.91;;
57439;Laerm;43282;47.188;8.896;2023-02-28T12:06:44;63.10;46.02;83.02;;
57439;Laerm;43282;47.188;8.896;2023-02-28T12:11:48;57.72;47.18;66.71;;
57439;Laerm;43282;47.188;8.896;2023-02-28T12:26:38;58.59;45.48;73.20;;
57439;Laerm;43282;47.188;8.896;2023-02-28T12:31:36;61.17;46.50;76.02;;
57439;Laerm;43282;47.188;8.896;2023-02-28T12:34:04;62.78;46.20;80.66;;
57439;Laerm;43282;47.188;8.896;2023-02-28T12:36:31;63.21;47.14;80.86;;
57439;Laerm;43282;47.188;8.896;2023-02-28T12:39:19;59.55;44.73;75.07;;
57439;Laerm;43282;47.188;8.896;2023-02-28T12:44:17;59.16;45.97;71.09;;
57439;Laerm;43282;47.188;8.896;2023-02-28T12:46:45;58.54;44.90;72.30;;
57439;Laerm;43282;47.188;8.896;2023-02-28T12:51:49;58.32;46.97;72.40;;
57439;Laerm;43282;47.188;8.896;2023-02-28T12:59:48;76.35;60.31;85.02;;
57439;Laerm;43282;47.188;8.896;2023-02-28T13:07:32;58.48;46.91;71.86;;
57439;Laerm;43282;47.188;8.896;2023-02-28T13:10:04;60.70;46.15;77.86;;
57439;Laerm;43282;47.188;8.896;2023-02-28T13:12:32;56.08;45.45;66.04;;
57439;Laerm;43282;47.188;8.896;2023-02-28T13:15:05;58.83;47.57;72.98;;
57439;Laerm;43282;47.188;8.896;2023-02-28T13:17:31;56.06;48.31;65.97;;
57439;Laerm;43282;47.188;8.896;2023-02-28T13:19:57;58.48;49.45;69.64;;
57439;Laerm;43282;47.188;8.896;2023-02-28T13:28:01;59.33;48.43;73.91;;
57439;Laerm;43282;47.188;8.896;2023-02-28T13:33:31;60.50;51.14;73.42;;
57439;Laerm;43282;47.188;8.896;2023-02-28T13:38:32;68.22;53.29;82.80;;
57439;Laerm;43282;47.188;8.896;2023-02-28T13:41:25;71.60;53.20;82.53;;
57439;Laerm;43282;47.188;8.896;2023-02-28T13:46:27;60.36;50.29;72.55;;
57439;Laerm;43282;47.188;8.896;2023-02-28T13:48:52;58.75;47.36;71.13;;
57439;Laerm;43282;47.188;8.896;2023-02-28T14:02:34;58.61;48.83;72.29;;
57439;Laerm;43282;47.188;8.896;2023-02-28T14:07:41;62.08;45.80;86.72;;
57439;Laerm;43282;47.188;8.896;2023-02-28T14:10:19;59.19;46.95;75.30;;
57439;Laerm;43282;47.188;8.896;2023-02-28T14:12:53;58.15;46.29;74.26;;
57439;Laerm;43282;47.188;8.896;2023-02-28T14:18:05;58.08;48.84;68.26;;
57439;Laerm;43282;47.188;8.896;2023-02-28T14:20:36;55.65;46.07;67.75;;
57439;Laerm;43282;47.188;8.896;2023-02-28T14:30:52;58.65;48.94;66.98;;
57439;Laerm;43282;47.188;8.896;2023-02-28T14:38:37;58.92;47.81;74.02;;
57439;Laerm;43282;47.188;8.896;2023-02-28T14:41:11;57.99;47.50;77.47;;
57439;Laerm;43282;47.188;8.896;2023-02-28T14:43:47;57.90;46.93;65.89;;
57439;Laerm;43282;47.188;8.896;2023-02-28T14:46:12;61.40;49.40;77.49;;
57439;Laerm;43282;47.188;8.896;2023-02-28T14:48:38;61.68;49.95;73.80;;
57439;Laerm;43282;47.188;8.896;2023-02-28T14:51:03;60.75;49.58;77.15;;
57439;Laerm;43282;47.188;8.896;2023-02-28T14:53:30;60.35;49.67;71.54;;
57439;Laerm;43282;47.188;8.896;2023-02-28T14:56:00;58.00;47.95;74.63;;
57439;Laerm;43282;47.188;8.896;2023-02-28T14:58:29;58.78;49.35;73.51;;
57439;Laerm;43282;47.188;8.896;2023-02-28T15:00:56;59.42;51.73;67.53;;
57439;Laerm;43282;47.188;8.896;2023-02-28T15:05:56;61.07;51.19;77.09;;
57439;Laerm;43282;47.188;8.896;2023-02-28T15:08:22;61.53;50.75;73.99;;
57439;Laerm;43282;47.188;8.896;2023-02-28T15:13:15;59.70;51.59;66.97;;
57439;Laerm;43282;47.188;8.896;2023-02-28T15:15:55;59.99;52.80;67.84;;
57439;Laerm;43282;47.188;8.896;2023-02-28T15:20:52;62.66;52.22;78.73;;
57439;Laerm;43282;47.188;8.896;2023-02-28T15:23:19;60.36;52.08;74.12;;
57439;Laerm;43282;47.188;8.896;2023-02-28T15:25:45;61.62;52.89;73.05;;
57439;Laerm;43282;47.188;8.896;2023-02-28T15:28:12;60.88;51.04;73.47;;
57439;Laerm;43282;47.188;8.896;2023-02-28T15:30:39;58.72;51.09;66.38;;
57439;Laerm;43282;47.188;8.896;2023-02-28T15:35:43;60.85;52.05;74.04;;
57439;Laerm;43282;47.188;8.896;2023-02-28T15:38:27;61.76;52.56;74.91;;
57439;Laerm;43282;47.188;8.896;2023-02-28T15:40:53;61.12;53.16;69.71;;
57439;Laerm;43282;47.188;8.896;2023-02-28T15:43:32;61.74;52.84;72.38;;
57439;Laerm;43282;47.188;8.896;2023-02-28T15:46:01;61.34;53.27;70.25;;
57439;Laerm;43282;47.188;8.896;2023-02-28T15:48:29;61.51;52.80;71.25;;
57439;Laerm;43282;47.188;8.896;2023-02-28T15:51:01;61.56;54.07;74.65;;
57439;Laerm;43282;47.188;8.896;2023-02-28T15:53:29;64.51;54.48;80.23;;
57439;Laerm;43282;47.188;8.896;2023-02-28T15:56:05;60.44;51.04;70.09;;
57439;Laerm;43282;47.188;8.896;2023-02-28T15:58:32;60.96;53.99;72.08;;
57439;Laerm;43282;47.188;8.896;2023-02-28T16:01:06;60.86;52.73;70.03;;
57439;Laerm;43282;47.188;8.896;2023-02-28T16:03:39;63.07;53.76;74.40;;
57439;Laerm;43282;47.188;8.896;2023-02-28T16:06:26;61.85;53.30;76.61;;
57439;Laerm;43282;47.188;8.896;2023-02-28T16:08:53;61.72;53.64;75.36;;
57439;Laerm;43282;47.188;8.896;2023-02-28T16:11:20;61.09;52.97;68.29;;
57439;Laerm;43282;47.188;8.896;2023-02-28T16:13:46;61.36;52.69;69.41;;
57439;Laerm;43282;47.188;8.896;2023-02-28T16:16:15;61.61;53.69;67.29;;
57439;Laerm;43282;47.188;8.896;2023-02-28T16:18:40;61.79;54.58;68.58;;
57439;Laerm;43282;47.188;8.896;2023-02-28T16:21:06;60.99;52.86;73.00;;
57439;Laerm;43282;47.188;8.896;2023-02-28T16:23:31;62.42;53.63;73.41;;
57439;Laerm;43282;47.188;8.896;2023-02-28T16:25:56;63.67;56.68;77.65;;
57439;Laerm;43282;47.188;8.896;2023-02-28T16:28:23;63.37;54.28;79.61;;
57439;Laerm;43282;47.188;8.896;2023-02-28T16:30:51;60.97;52.92;70.92;;
57439;Laerm;43282;47.188;8.896;2023-02-28T16:33:17;61.77;52.81;81.00;;
57439;Laerm;43282;47.188;8.896;2023-02-28T16:35:42;61.91;53.71;73.64;;
57439;Laerm;43282;47.188;8.896;2023-02-28T16:38:08;61.78;52.91;72.88;;
57439;Laerm;43282;47.188;8.896;2023-02-28T16:40:34;62.18;52.60;76.48;;
57439;Laerm;43282;47.188;8.896;2023-02-28T16:43:10;63.19;48.98;79.55;;
57439;Laerm;43282;47.188;8.896;2023-02-28T16:45:38;60.06;51.47;69.28;;